Time;durP1;ratioP1;P1;durP2;ratioP2;P2;SDS_P1;SDS_P2;PMS_P1;PMS_P2;Temp;Humidity;BMP_temperature;BMP_pressure;BME280_temperature;BME280_humidity;BME280_pressure;Samples;Min_cycle;Max_cycle;Signal;HPM_P1;HPM_P2
2023/01/26 00:00:16;;;;;;;34.23;16.90;;;2.20;99.90;;;;;;4913525;29;20475;-83
2023/01/26 00:02:54;;;;;;;36.17;18.83;;;2.20;99.90;;;;;;4913429;29;20494;-84
2023/01/26 00:05:27;;;;;;;43.23;20.47;;;2.20;99.90;;;;;;4912370;29;20470;-87
2023/01/26 00:07:57;;;;;;;43.10;20.50;;;2.20;99.90;;;;;;4914181;29;20973;-86
2023/01/26 00:10:51;;;;;;;41.20;17.80;;;2.20;99.90;;;;;;4913032;29;20483;-86
2023/01/26 00:13:52;;;;;;;38.23;18.70;;;2.20;99.90;;;;;;4915515;29;20466;-85
2023/01/26 00:16:42;;;;;;;51.07;21.77;;;2.20;99.90;;;;;;4920330;29;20476;-86
2023/01/26 00:19:16;;;;;;;45.70;20.77;;;2.10;99.90;;;;;;4929739;29;20542;-85
2023/01/26 00:21:57;;;;;;;47.60;20.57;;;2.10;99.90;;;;;;4919041;29;22512;-85
2023/01/26 00:24:30;;;;;;;39.43;19.33;;;2.10;99.90;;;;;;4915362;29;20474;-86
2023/01/26 00:27:01;;;;;;;47.07;21.13;;;2.10;99.90;;;;;;4913890;29;20474;-87
2023/01/26 00:29:33;;;;;;;43.87;20.70;;;2.10;99.90;;;;;;4916548;29;20509;-86
2023/01/26 00:32:31;;;;;;;42.40;20.63;;;2.10;99.90;;;;;;4928722;29;20682;-87
2023/01/26 00:35:25;;;;;;;41.60;19.23;;;2.00;99.90;;;;;;4934545;29;20502;-86
2023/01/26 00:37:55;;;;;;;39.43;19.53;;;2.00;99.90;;;;;;4924736;29;20463;-87
2023/01/26 00:40:36;;;;;;;40.40;18.87;;;2.00;99.90;;;;;;4906580;29;20492;-87
2023/01/26 00:43:20;;;;;;;37.63;19.10;;;2.00;99.90;;;;;;4915855;29;20478;-86
2023/01/26 00:45:54;;;;;;;47.73;19.63;;;2.00;99.90;;;;;;4914167;29;20454;-87
2023/01/26 00:48:53;;;;;;;43.97;18.63;;;2.00;99.90;;;;;;4909869;29;20486;-87
2023/01/26 00:52:07;;;;;;;42.60;20.17;;;2.00;99.90;;;;;;4915049;29;21902;-85
2023/01/26 00:54:49;;;;;;;44.97;20.00;;;2.00;99.90;;;;;;4915848;29;20566;-86
2023/01/26 00:57:31;;;;;;;42.90;18.93;;;2.00;99.90;;;;;;4913997;29;20477;-85
2023/01/26 01:00:14;;;;;;;37.93;18.10;;;2.00;99.90;;;;;;4911102;29;20474;-86
2023/01/26 01:03:12;;;;;;;37.77;19.60;;;2.10;99.90;;;;;;4909276;29;20461;-86
2023/01/26 01:06:20;;;;;;;43.53;19.57;;;2.10;99.90;;;;;;4912074;29;20660;-86
2023/01/26 01:08:52;;;;;;;41.37;19.23;;;2.10;99.90;;;;;;4911371;29;20530;-86
2023/01/26 01:11:52;;;;;;;42.30;20.50;;;2.00;99.90;;;;;;4906831;29;20466;-84
2023/01/26 01:14:51;;;;;;;42.67;21.77;;;2.00;99.90;;;;;;4896438;29;20553;-84
2023/01/26 01:17:51;;;;;;;38.03;17.57;;;2.00;99.90;;;;;;4894191;29;20470;-84
2023/01/26 01:20:29;;;;;;;41.57;17.77;;;2.00;99.90;;;;;;4906335;29;20936;-84
2023/01/26 01:23:42;;;;;;;44.70;20.33;;;2.00;99.90;;;;;;4908912;29;20530;-86
2023/01/26 01:26:32;;;;;;;40.30;19.00;;;2.10;99.90;;;;;;4855742;29;20461;-87
2023/01/26 01:29:09;;;;;;;46.57;20.93;;;2.00;99.90;;;;;;4853428;29;20500;-85
2023/01/26 01:32:18;;;;;;;42.30;19.07;;;2.10;99.90;;;;;;4854510;29;20513;-87
2023/01/26 01:35:16;;;;;;;41.77;20.60;;;2.10;99.90;;;;;;4869090;29;20468;-87
2023/01/26 01:38:15;;;;;;;41.53;21.50;;;2.20;99.90;;;;;;4855024;29;20472;-87
2023/01/26 01:41:08;;;;;;;47.70;20.30;;;2.20;99.90;;;;;;4859008;29;20527;-85
2023/01/26 01:43:48;;;;;;;43.20;20.97;;;2.10;99.90;;;;;;4866504;29;20718;-84
2023/01/26 01:46:42;;;;;;;45.03;21.50;;;2.10;99.90;;;;;;4887731;29;20475;-88
2023/01/26 01:49:57;;;;;;;44.27;21.73;;;2.20;99.90;;;;;;4880263;29;20483;-86
2023/01/26 01:53:14;;;;;;;50.67;20.47;;;2.30;99.90;;;;;;4844780;29;20470;-85
2023/01/26 01:56:02;;;;;;;47.50;19.27;;;2.20;99.90;;;;;;4863971;29;20498;-86
2023/01/26 01:59:01;;;;;;;38.07;20.23;;;2.10;99.90;;;;;;4859997;29;20461;-85
2023/01/26 02:02:21;;;;;;;46.10;19.83;;;2.60;99.90;;;;;;4867957;29;20561;-87
2023/01/26 02:05:03;;;;;;;40.80;18.03;;;2.50;99.90;;;;;;4929336;29;20498;-86
2023/01/26 02:07:40;;;;;;;40.30;19.43;;;2.70;99.90;;;;;;4922418;29;20449;-85
2023/01/26 02:13:58;;;;;;;44.63;20.33;;;2.50;99.90;;;;;;4909054;29;20488;-84
2023/01/26 02:16:57;;;;;;;41.73;19.23;;;2.20;99.90;;;;;;4853620;29;21173;-86
2023/01/26 02:20:07;;;;;;;44.87;19.83;;;2.00;99.90;;;;;;4854483;29;20524;-87
2023/01/26 02:22:53;;;;;;;39.53;18.77;;;2.00;99.90;;;;;;4838026;29;20465;-86
2023/01/26 02:25:50;;;;;;;51.73;21.37;;;1.90;99.90;;;;;;4836088;29;22484;-85
2023/01/26 02:29:11;;;;;;;38.40;18.33;;;1.90;99.90;;;;;;4839616;29;21567;-86
2023/01/26 02:32:04;;;;;;;38.30;18.63;;;1.80;99.90;;;;;;4830569;29;20442;-87
2023/01/26 02:34:31;;;;;;;45.03;21.10;;;1.90;99.90;;;;;;4838476;29;21013;-87
2023/01/26 02:37:03;;;;;;;34.43;17.60;;;1.90;99.90;;;;;;4855240;29;20461;-88
2023/01/26 02:40:30;;;;;;;;;;;;;;;;;;;;;
2023/01/26 02:43:05;;;;;;;52.93;19.93;;;1.90;99.90;;;;;;4853172;29;20587;-87
2023/01/26 02:45:55;;;;;;;40.53;18.40;;;2.00;99.90;;;;;;4853296;29;20476;-87
2023/01/26 03:05:20;;;;;;;40.33;20.13;;;2.20;99.90;;;;;;4906914;29;20916;-88
2023/01/26 03:08:19;;;;;;;41.30;21.07;;;2.20;99.90;;;;;;4908771;29;20526;-86
2023/01/26 03:11:40;;;;;;;39.67;19.87;;;2.50;99.90;;;;;;4874660;29;20444;-87
2023/01/26 03:14:29;;;;;;;42.83;20.50;;;2.50;99.90;;;;;;4888199;29;20463;-86
2023/01/26 03:17:29;;;;;;;35.37;18.87;;;2.20;99.90;;;;;;4892020;29;20456;-87
2023/01/26 03:28:38;;;;;;;49.70;19.73;;;2.50;99.90;;;;;;4890599;29;20495;-87
2023/01/26 03:31:06;;;;;;;38.57;18.00;;;2.20;99.90;;;;;;4889304;29;20452;-88
2023/01/26 03:33:33;;;;;;;44.47;19.60;;;2.10;99.90;;;;;;4894679;29;20473;-87
2023/01/26 03:36:01;;;;;;;36.67;17.73;;;2.00;99.90;;;;;;4892544;29;20465;-87
2023/01/26 03:38:45;;;;;;;47.30;21.50;;;1.90;99.90;;;;;;4895168;29;20494;-87
2023/01/26 03:57:34;;;;;;;39.97;18.50;;;2.30;99.90;;;;;;4845659;29;20446;-87
2023/01/26 04:00:14;;;;;;;31.23;15.90;;;2.00;99.90;;;;;;4855484;29;20485;-88
2023/01/26 04:09:14;;;;;;;37.70;17.10;;;2.40;99.90;;;;;;4850165;29;20486;-88
2023/01/26 04:12:00;;;;;;;40.53;17.47;;;2.40;99.90;;;;;;4845576;29;20464;-88
2023/01/26 04:24:13;;;;;;;38.80;17.60;;;2.10;99.90;;;;;;4887057;29;20459;-88
2023/01/26 04:27:33;;;;;;;35.90;17.53;;;2.00;99.90;;;;;;4890503;29;20515;-88
2023/01/26 04:30:19;;;;;;;34.30;16.50;;;1.90;99.90;;;;;;4890747;29;20501;-88
2023/01/26 04:33:17;;;;;;;31.17;17.27;;;1.90;99.90;;;;;;4890152;29;20528;-87
2023/01/26 04:39:09;;;;;;;30.93;15.77;;;1.90;99.90;;;;;;4901790;29;20559;-89
2023/01/26 04:41:40;;;;;;;32.00;16.73;;;1.90;99.90;;;;;;4900691;29;20475;-88
2023/01/26 04:44:29;;;;;;;37.40;15.33;;;1.90;99.90;;;;;;4898002;29;21297;-88
2023/01/26 04:51:32;;;;;;;32.67;17.70;;;1.90;99.90;;;;;;4891596;29;21344;-87
2023/01/26 04:54:41;;;;;;;26.47;15.53;;;1.90;99.90;;;;;;4884180;29;20475;-88
2023/01/26 04:57:45;;;;;;;31.57;16.17;;;2.20;99.90;;;;;;4837562;29;20443;-86
2023/01/26 05:00:35;;;;;;;34.93;14.70;;;2.10;99.90;;;;;;4846581;29;20553;-86
2023/01/26 05:03:13;;;;;;;28.40;15.17;;;2.10;99.90;;;;;;4870144;29;20473;-87
2023/01/26 05:06:05;;;;;;;31.70;14.87;;;2.00;99.90;;;;;;4875912;29;20489;-89
2023/01/26 05:09:06;;;;;;;35.53;15.50;;;1.90;99.90;;;;;;4878435;29;20503;-89
2023/01/26 05:15:41;;;;;;;29.90;14.60;;;1.90;99.90;;;;;;4867667;29;21051;-86
2023/01/26 05:18:33;;;;;;;32.83;15.07;;;1.90;99.90;;;;;;4781509;29;20457;-87
2023/01/26 05:21:16;;;;;;;29.00;14.30;;;1.90;99.90;;;;;;4784069;29;20475;-87
2023/01/26 05:24:07;;;;;;;29.40;14.67;;;1.90;99.90;;;;;;4791692;29;20437;-85
2023/01/26 05:27:19;;;;;;;26.73;11.90;;;1.90;99.90;;;;;;4792933;29;20488;-88
2023/01/26 05:29:50;;;;;;;28.03;13.10;;;1.90;99.90;;;;;;4806690;29;20516;-86
2023/01/26 05:35:49;;;;;;;29.00;14.20;;;1.90;99.90;;;;;;4798577;29;20471;-86
2023/01/26 05:38:59;;;;;;;22.83;11.87;;;1.90;99.90;;;;;;4781483;29;22098;-86
2023/01/26 05:41:59;;;;;;;25.70;13.13;;;2.00;99.90;;;;;;4772443;29;20548;-87
2023/01/26 05:44:39;;;;;;;28.00;12.53;;;2.00;99.90;;;;;;4794431;29;20464;-85
2023/01/26 05:47:20;;;;;;;26.23;12.73;;;1.90;99.90;;;;;;4792924;29;20474;-87
2023/01/26 05:50:30;;;;;;;23.50;12.57;;;2.00;99.90;;;;;;4794412;29;20678;-86
2023/01/26 05:53:25;;;;;;;29.50;13.10;;;2.00;99.90;;;;;;4782950;29;20926;-88
2023/01/26 06:02:41;;;;;;;31.80;14.17;;;2.00;99.90;;;;;;4859297;29;20464;-88
2023/01/26 06:05:41;;;;;;;23.10;12.10;;;2.00;99.90;;;;;;4870599;29;20513;-88
2023/01/26 06:08:24;;;;;;;26.37;13.83;;;2.00;99.90;;;;;;4868335;29;20582;-87
2023/01/26 06:11:18;;;;;;;22.27;12.10;;;1.90;99.90;;;;;;4867797;29;20471;-86
2023/01/26 06:16:58;;;;;;;30.67;14.33;;;2.00;99.90;;;;;;4875095;29;20519;-88
2023/01/26 06:19:50;;;;;;;31.80;13.73;;;2.00;99.90;;;;;;4883016;29;20488;-89
2023/01/26 06:22:45;;;;;;;33.20;15.33;;;2.00;99.90;;;;;;4864246;29;20552;-86
2023/01/26 06:25:26;;;;;;;29.90;13.43;;;2.10;99.90;;;;;;4865151;29;21009;-86
2023/01/26 06:28:14;;;;;;;29.60;14.13;;;2.10;99.90;;;;;;4868054;29;20518;-87
2023/01/26 06:31:34;;;;;;;;;;;;;;;;;;;;;
2023/01/26 06:34:11;;;;;;;28.73;13.97;;;2.10;99.90;;;;;;4867444;29;20602;-86
2023/01/26 06:36:54;;;;;;;27.03;14.87;;;2.00;99.90;;;;;;4863469;29;20468;-87
2023/01/26 06:39:45;;;;;;;24.27;13.93;;;2.00;99.90;;;;;;4867051;29;20528;-87
2023/01/26 06:42:58;;;;;;;26.20;13.70;;;1.90;99.90;;;;;;4870429;29;22787;-88
2023/01/26 06:49:42;;;;;;;32.20;16.93;;;2.00;99.90;;;;;;4856080;29;21339;-87
2023/01/26 06:55:40;;;;;;;26.50;13.60;;;2.10;99.90;;;;;;4872896;29;20465;-87
2023/01/26 06:58:28;;;;;;;32.20;14.47;;;2.10;99.90;;;;;;4871795;29;20457;-86
2023/01/26 07:01:25;;;;;;;26.33;13.20;;;2.10;99.90;;;;;;4873051;29;20520;-86
2023/01/26 07:04:30;;;;;;;23.87;12.63;;;2.30;99.90;;;;;;4869781;29;20468;-88
2023/01/26 07:07:34;;;;;;;28.53;15.67;;;2.20;99.90;;;;;;4841607;29;20464;-88
2023/01/26 07:10:13;;;;;;;29.77;15.73;;;2.30;99.90;;;;;;4876716;29;20552;-84
2023/01/26 07:13:16;;;;;;;31.63;14.93;;;2.30;99.90;;;;;;4879683;29;20872;-85
2023/01/26 07:15:50;;;;;;;26.10;13.33;;;2.30;99.90;;;;;;4871685;29;20943;-86
2023/01/26 07:21:18;;;;;;;27.10;13.87;;;2.20;99.90;;;;;;4983584;23;20585;-86
2023/01/26 07:26:50;;;;;;;26.27;13.30;;;2.30;99.90;;;;;;4899445;29;20473;-86
2023/01/26 07:29:34;;;;;;;29.90;15.10;;;2.30;99.90;;;;;;4919473;29;20486;-86
2023/01/26 07:32:50;;;;;;;27.03;12.53;;;2.20;99.90;;;;;;4915765;29;21011;-86
2023/01/26 07:35:58;;;;;;;25.50;14.17;;;2.20;99.90;;;;;;4907606;29;20441;-83
2023/01/26 07:38:34;;;;;;;33.50;14.70;;;2.20;99.90;;;;;;4936030;29;20481;-88
2023/01/26 07:41:24;;;;;;;28.17;13.50;;;2.20;99.90;;;;;;4845035;29;20458;-85
2023/01/26 07:44:46;;;;;;;31.00;14.37;;;2.20;99.90;;;;;;4827455;29;20458;-87
2023/01/26 07:47:36;;;;;;;26.37;12.50;;;2.20;99.90;;;;;;4835812;29;20466;-87
2023/01/26 07:50:25;;;;;;;26.73;15.20;;;2.20;99.90;;;;;;4836566;29;20498;-88
2023/01/26 07:53:18;;;;;;;30.30;14.17;;;2.20;99.90;;;;;;4836281;29;20527;-87
2023/01/26 07:56:19;;;;;;;25.53;13.20;;;2.20;99.90;;;;;;4836043;29;20499;-87
2023/01/26 07:59:06;;;;;;;24.47;13.57;;;2.20;99.90;;;;;;4835876;29;21094;-86
2023/01/26 08:01:33;;;;;;;24.67;14.70;;;2.20;99.90;;;;;;4836432;29;20465;-86
2023/01/26 08:04:17;;;;;;;27.60;14.40;;;2.20;99.90;;;;;;4837857;29;20471;-84
2023/01/26 08:07:12;;;;;;;26.00;12.77;;;2.20;99.90;;;;;;4798813;29;20858;-86
2023/01/26 08:10:12;;;;;;;25.83;13.20;;;2.40;99.90;;;;;;4786952;29;20559;-86
2023/01/26 08:12:53;;;;;;;26.63;14.27;;;2.40;99.90;;;;;;4785216;29;20492;-86
2023/01/26 08:15:56;;;;;;;;;;;;;;;;;;;;;
2023/01/26 08:18:40;;;;;;;29.90;13.77;;;2.30;99.90;;;;;;4837182;29;20461;-86
2023/01/26 08:21:20;;;;;;;22.97;12.60;;;2.20;99.90;;;;;;4866694;29;20476;-84
2023/01/26 08:31:49;;;;;;;25.17;13.03;;;2.20;99.90;;;;;;4802272;29;20577;-86
2023/01/26 08:34:21;;;;;;;23.37;12.77;;;2.20;99.90;;;;;;4822150;29;20503;-86
2023/01/26 08:36:57;;;;;;;29.20;15.00;;;2.30;99.90;;;;;;4823071;29;21975;-88
2023/01/26 08:39:38;;;;;;;25.40;13.13;;;2.30;99.90;;;;;;4868558;29;20488;-86
2023/01/26 08:42:27;;;;;;;;;;;;;;;;;;;;;
2023/01/26 08:45:11;;;;;;;26.13;12.37;;;2.40;99.90;;;;;;4862581;29;20449;-87
2023/01/26 08:52:24;;;;;;;;;;;;;;;;;;;;;
2023/01/26 08:55:05;;;;;;;26.40;13.97;;;2.50;99.90;;;;;;4750981;30;20498;-86
2023/01/26 08:58:19;;;;;;;28.90;14.00;;;2.50;99.90;;;;;;4750512;29;20453;-86
2023/01/26 09:01:48;;;;;;;30.10;15.17;;;2.50;99.90;;;;;;4770353;29;20480;-85
2023/01/26 09:04:40;;;;;;;28.60;13.63;;;2.50;99.90;;;;;;4759316;30;20463;-87
2023/01/26 09:07:29;;;;;;;30.50;13.57;;;2.50;99.90;;;;;;4747568;30;21571;-86
2023/01/26 09:10:53;;;;;;;;;;;;;;;;;;;;;
2023/01/26 09:13:51;;;;;;;28.13;13.40;;;2.50;99.90;;;;;;4853205;29;20465;-85
2023/01/26 09:16:58;;;;;;;25.00;13.03;;;2.60;99.90;;;;;;4852494;29;20542;-87
2023/01/26 09:23:15;;;;;;;27.53;13.17;;;2.70;99.90;;;;;;4823211;29;20565;-85
2023/01/26 09:26:00;;;;;;;30.83;16.00;;;2.70;99.90;;;;;;4867876;29;20443;-86
2023/01/26 09:28:38;;;;;;;22.10;12.10;;;2.70;99.90;;;;;;4885830;29;20459;-87
2023/01/26 09:31:10;;;;;;;28.70;14.27;;;2.70;99.90;;;;;;4923477;29;21051;-87
2023/01/26 09:33:45;;;;;;;26.20;13.87;;;2.70;99.90;;;;;;4919445;29;20447;-87
2023/01/26 09:36:12;;;;;;;27.10;14.37;;;2.70;99.90;;;;;;4922870;29;20686;-87
2023/01/26 09:38:50;;;;;;;32.60;15.67;;;2.70;99.90;;;;;;4927284;29;20466;-85
2023/01/26 09:41:47;;;;;;;27.17;13.03;;;2.70;99.90;;;;;;4914339;29;20455;-84
2023/01/26 09:44:30;;;;;;;29.77;13.50;;;3.00;99.90;;;;;;4914335;29;20455;-88
2023/01/26 09:47:25;;;;;;;27.80;14.30;;;3.00;99.90;;;;;;4918193;29;20462;-85
2023/01/26 09:50:46;;;;;;;21.47;12.63;;;3.00;99.90;;;;;;4862038;29;20520;-84
2023/01/26 09:54:16;;;;;;;;;;;;;;;;;;;;;
2023/01/26 09:57:38;;;;;;;35.10;13.97;;;2.70;99.90;;;;;;4885788;29;20456;-86
2023/01/26 10:00:42;;;;;;;33.80;15.40;;;2.70;99.90;;;;;;4913389;23;20503;-85
2023/01/26 10:03:34;;;;;;;26.77;14.73;;;2.70;99.90;;;;;;4888981;29;20558;-85
2023/01/26 10:06:30;;;;;;;28.97;15.00;;;2.70;99.90;;;;;;4892384;29;20471;-85
2023/01/26 10:09:32;;;;;;;;;;;;;;;;;;;;;
2023/01/26 10:12:44;;;;;;;24.73;13.30;;;2.80;99.90;;;;;;4887333;29;20463;-84
2023/01/26 10:16:03;;;;;;;26.80;13.23;;;2.80;99.90;;;;;;4799249;29;20552;-86
2023/01/26 10:18:53;;;;;;;33.00;16.77;;;2.80;99.90;;;;;;4817180;29;20456;-85
2023/01/26 10:21:42;;;;;;;27.30;13.63;;;2.90;99.90;;;;;;4888866;29;20549;-85
2023/01/26 10:24:30;;;;;;;30.63;14.67;;;2.90;99.90;;;;;;4898063;29;20489;-86
2023/01/26 10:27:20;;;;;;;27.47;13.03;;;2.90;99.90;;;;;;4874063;29;20975;-85
2023/01/26 10:29:55;;;;;;;29.53;14.80;;;2.90;99.90;;;;;;4885746;29;20487;-86
2023/01/26 10:32:39;;;;;;;;;;;;;;;;;;;;;
2023/01/26 10:35:41;;;;;;;34.90;16.20;;;2.80;99.90;;;;;;4882354;29;20546;-85
2023/01/26 10:38:43;;;;;;;28.00;15.40;;;2.80;99.90;;;;;;4882263;29;20468;-87
2023/01/26 10:41:13;;;;;;;31.73;14.90;;;2.80;99.90;;;;;;4884168;29;20468;-85
2023/01/26 10:44:11;;;;;;;30.97;15.30;;;2.80;99.90;;;;;;4912819;29;20468;-86
2023/01/26 10:46:41;;;;;;;35.63;17.50;;;2.80;99.90;;;;;;4888751;29;20539;-85
2023/01/26 10:49:08;;;;;;;30.30;15.30;;;2.80;99.90;;;;;;4879561;29;20480;-85
2023/01/26 10:51:44;;;;;;;33.23;18.80;;;2.90;99.90;;;;;;4884250;29;20484;-86
2023/01/26 10:54:24;;;;;;;32.70;16.97;;;2.90;99.90;;;;;;4887027;29;20546;-86
2023/01/26 10:56:55;;;;;;;32.33;14.00;;;2.90;99.90;;;;;;4881892;29;20472;-86
2023/01/26 10:59:42;;;;;;;28.20;13.70;;;2.90;99.90;;;;;;4881435;29;20930;-86
2023/01/26 11:02:18;;;;;;;29.70;13.60;;;2.90;99.90;;;;;;4881889;29;20509;-86
2023/01/26 11:05:08;;;;;;;25.40;13.13;;;2.90;99.90;;;;;;4878124;29;20559;-86
2023/01/26 11:08:02;;;;;;;30.23;14.33;;;3.00;99.90;;;;;;4881125;29;20472;-87
2023/01/26 11:10:53;;;;;;;28.77;14.50;;;3.00;99.90;;;;;;4876678;29;20495;-84
2023/01/26 11:16:49;;;;;;;30.90;15.47;;;3.30;99.90;;;;;;4880036;29;20492;-86
2023/01/26 11:19:58;;;;;;;32.73;16.50;;;3.40;99.90;;;;;;4873616;29;20483;-87
2023/01/26 11:26:55;;;;;;;31.93;14.37;;;3.20;99.90;;;;;;4872046;29;20504;-86
2023/01/26 11:29:44;;;;;;;34.43;14.73;;;3.10;99.90;;;;;;4890432;29;20479;-86
2023/01/26 11:32:44;;;;;;;34.63;17.20;;;3.10;99.90;;;;;;4833069;29;20445;-86
2023/01/26 11:35:51;;;;;;;29.60;14.13;;;3.10;99.90;;;;;;4846654;29;20469;-86
2023/01/26 11:38:54;;;;;;;32.60;15.37;;;3.30;99.90;;;;;;4831336;29;20532;-84
2023/01/26 11:42:29;;;;;;;40.43;15.37;;;3.30;99.90;;;;;;4836354;29;20481;-86
2023/01/26 11:45:31;;;;;;;26.80;13.90;;;3.30;99.90;;;;;;4862806;29;20441;-85
2023/01/26 11:48:45;;;;;;;26.10;14.87;;;3.30;99.90;;;;;;4846465;29;20480;-87
2023/01/26 11:51:47;;;;;;;30.60;14.70;;;3.20;99.90;;;;;;4863124;29;20550;-87
2023/01/26 11:55:13;;;;;;;29.60;15.00;;;3.20;99.90;;;;;;4859621;29;20457;-86
2023/01/26 11:58:28;;;;;;;31.60;15.83;;;3.20;99.90;;;;;;4821162;29;20556;-86
2023/01/26 12:01:13;;;;;;;31.87;16.30;;;3.20;99.90;;;;;;4858215;29;20490;-86
2023/01/26 12:04:36;;;;;;;27.70;13.93;;;3.30;99.90;;;;;;4889042;29;20484;-86
2023/01/26 12:12:18;;;;;;;33.57;14.93;;;3.30;99.90;;;;;;4769349;30;20494;-86
2023/01/26 12:16:03;;;;;;;32.43;16.40;;;3.30;99.90;;;;;;4753164;29;20536;-87
2023/01/26 12:18:58;;;;;;;29.70;15.40;;;3.30;99.90;;;;;;4817145;29;20459;-85
2023/01/26 12:21:45;;;;;;;32.17;16.10;;;3.40;99.90;;;;;;4818514;29;20471;-84
2023/01/26 12:28:28;;;;;;;35.60;18.60;;;3.30;99.90;;;;;;4824035;29;20477;-85
2023/01/26 12:31:25;;;;;;;40.60;17.47;;;3.40;99.90;;;;;;4826814;29;20497;-86
2023/01/26 12:34:12;;;;;;;38.30;17.73;;;3.30;99.90;;;;;;4815938;29;20475;-87
2023/01/26 12:37:37;;;;;;;34.67;16.83;;;3.30;99.90;;;;;;4829585;29;20474;-85
2023/01/26 12:40:52;;;;;;;37.17;16.53;;;3.40;99.90;;;;;;4826014;29;20498;-85
2023/01/26 12:43:17;;;;;;;35.93;15.90;;;3.50;99.90;;;;;;4830143;29;20596;-86
2023/01/26 12:49:32;;;;;;;34.83;16.13;;;3.50;99.90;;;;;;4866006;29;20946;-85
2023/01/26 12:52:45;;;;;;;27.47;15.40;;;3.60;99.90;;;;;;4897408;29;20527;-86
2023/01/26 12:55:28;;;;;;;29.83;16.07;;;3.70;99.90;;;;;;4887879;29;20464;-87
2023/01/26 12:58:31;;;;;;;27.93;14.37;;;3.60;99.90;;;;;;4894520;29;20448;-87
2023/01/26 13:01:40;;;;;;;29.87;14.30;;;3.70;99.90;;;;;;4903507;29;20464;-87
2023/01/26 13:04:39;;;;;;;24.07;12.67;;;3.70;99.90;;;;;;4872253;29;20539;-88
2023/01/26 13:07:49;;;;;;;28.57;14.37;;;3.50;99.90;;;;;;4884773;29;20472;-87
2023/01/26 13:10:40;;;;;;;21.80;11.63;;;3.70;99.90;;;;;;4890111;29;20492;-88
2023/01/26 13:13:31;;;;;;;23.77;12.90;;;3.60;99.90;;;;;;4872971;29;20455;-86
2023/01/26 13:16:36;;;;;;;24.80;13.13;;;3.50;99.90;;;;;;4884038;29;20456;-84
2023/01/26 13:19:44;;;;;;;27.37;14.47;;;3.50;99.90;;;;;;4886673;29;20476;-87
2023/01/26 13:22:42;;;;;;;21.00;11.00;;;3.50;99.90;;;;;;4879221;29;20507;-86
2023/01/26 13:25:35;;;;;;;23.80;12.10;;;3.50;99.90;;;;;;4890336;29;20522;-86
2023/01/26 13:28:12;;;;;;;22.07;11.07;;;3.50;99.90;;;;;;4898020;29;20451;-86
2023/01/26 13:31:03;;;;;;;21.23;11.57;;;3.50;99.90;;;;;;4881348;29;20498;-85
2023/01/26 13:33:40;;;;;;;19.87;12.03;;;3.70;99.90;;;;;;4871755;29;20504;-87
2023/01/26 13:36:19;;;;;;;16.70;10.80;;;3.70;99.90;;;;;;4892389;29;20449;-88
2023/01/26 13:39:38;;;;;;;22.60;11.57;;;3.70;99.90;;;;;;4879934;29;20457;-86
2023/01/26 13:42:24;;;;;;;18.33;10.60;;;3.60;99.90;;;;;;4881526;29;20473;-85
2023/01/26 13:45:17;;;;;;;21.00;10.57;;;3.70;99.90;;;;;;4877255;29;20467;-86
2023/01/26 13:47:59;;;;;;;20.37;10.90;;;3.60;99.90;;;;;;4878247;29;22054;-85
2023/01/26 13:50:39;;;;;;;18.30;10.10;;;3.70;99.90;;;;;;4873049;29;20492;-82
2023/01/26 13:53:46;;;;;;;15.40;9.40;;;3.80;99.90;;;;;;4867945;29;20447;-83
2023/01/26 13:56:29;;;;;;;17.47;9.93;;;3.80;99.90;;;;;;4880491;29;20496;-85
2023/01/26 13:59:24;;;;;;;19.10;11.00;;;3.80;99.90;;;;;;4879211;29;20484;-84
2023/01/26 14:01:57;;;;;;;20.10;11.60;;;3.70;99.90;;;;;;4877983;29;20491;-85
2023/01/26 14:04:34;;;;;;;18.43;9.40;;;3.80;99.90;;;;;;4877199;29;20472;-85
2023/01/26 14:07:33;;;;;;;21.00;10.87;;;3.70;99.90;;;;;;4877096;29;20494;-84
2023/01/26 14:10:21;;;;;;;19.60;10.20;;;3.80;99.90;;;;;;4866655;29;20513;-87
2023/01/26 14:13:03;;;;;;;16.83;10.30;;;3.80;99.90;;;;;;4880395;29;20472;-86
2023/01/26 14:15:44;;;;;;;14.47;9.27;;;3.80;99.90;;;;;;4887448;29;20525;-87
2023/01/26 14:18:28;;;;;;;17.43;10.03;;;3.70;99.90;;;;;;4901569;29;20469;-87
2023/01/26 14:21:27;;;;;;;16.00;9.23;;;3.80;99.90;;;;;;4933374;23;20555;-86
2023/01/26 14:24:07;;;;;;;17.27;9.63;;;3.80;99.90;;;;;;4898029;29;20479;-85
2023/01/26 14:27:02;;;;;;;12.30;8.33;;;3.80;99.90;;;;;;4894759;29;20444;-84
2023/01/26 14:29:53;;;;;;;12.57;9.07;;;3.70;99.90;;;;;;4901727;29;20489;-86
2023/01/26 14:32:35;;;;;;;14.93;9.20;;;3.80;99.90;;;;;;4900432;29;20509;-85
2023/01/26 14:35:24;;;;;;;14.97;9.43;;;3.70;99.90;;;;;;4885626;29;20455;-86
2023/01/26 14:38:14;;;;;;;11.73;8.00;;;3.90;99.90;;;;;;4893447;29;20463;-87
2023/01/26 14:40:58;;;;;;;12.00;8.40;;;3.80;99.90;;;;;;4887787;29;21187;-85
2023/01/26 14:43:38;;;;;;;11.50;8.47;;;3.90;99.90;;;;;;4889368;29;20455;-85
2023/01/26 14:46:31;;;;;;;13.60;9.57;;;4.00;99.90;;;;;;4889747;29;20562;-85
2023/01/26 14:50:18;;;;;;;13.50;9.07;;;4.00;99.90;;;;;;4893796;29;20482;-86
2023/01/26 14:53:41;;;;;;;10.83;7.73;;;4.00;99.90;;;;;;4888252;29;20483;-86
2023/01/26 14:56:47;;;;;;;12.20;7.53;;;4.10;99.90;;;;;;4882785;29;20509;-87
2023/01/26 15:02:48;;;;;;;11.17;6.83;;;3.90;99.90;;;;;;4878012;29;20479;-84
2023/01/26 15:05:44;;;;;;;22.60;8.23;;;3.90;99.90;;;;;;4896354;29;20455;-85
2023/01/26 15:08:53;;;;;;;7.70;5.83;;;3.90;99.90;;;;;;4897849;29;20491;-86
2023/01/26 15:12:30;;;;;;;11.67;7.40;;;4.10;99.90;;;;;;4900562;29;20487;-87
2023/01/26 15:14:59;;;;;;;8.43;6.50;;;4.20;99.90;;;;;;4911958;29;20467;-84
2023/01/26 15:17:42;;;;;;;8.10;5.60;;;4.10;99.90;;;;;;4897242;29;21211;-85
2023/01/26 15:20:29;;;;;;;6.73;5.60;;;4.10;99.90;;;;;;4895020;29;21182;-86
2023/01/26 15:23:03;;;;;;;9.50;5.80;;;4.10;99.90;;;;;;4894640;29;20898;-86
2023/01/26 15:25:46;;;;;;;6.10;5.43;;;4.30;99.90;;;;;;4897547;29;20455;-87
2023/01/26 15:28:37;;;;;;;6.77;4.93;;;4.30;99.90;;;;;;4898814;29;20439;-87
2023/01/26 15:31:27;;;;;;;8.20;5.57;;;4.30;99.90;;;;;;4904293;29;20483;-85
2023/01/26 15:34:06;;;;;;;8.57;6.40;;;4.30;99.90;;;;;;4892444;29;20463;-86
2023/01/26 15:37:04;;;;;;;6.73;5.57;;;4.30;99.90;;;;;;4900228;29;20462;-86
2023/01/26 15:39:45;;;;;;;9.60;6.17;;;4.60;99.90;;;;;;4892873;29;20493;-86
2023/01/26 15:42:29;;;;;;;6.87;5.43;;;4.40;99.90;;;;;;4892458;29;20560;-85
2023/01/26 15:45:38;;;;;;;9.47;6.50;;;4.20;99.90;;;;;;4891234;29;20542;-85
2023/01/26 15:48:17;;;;;;;12.90;5.80;;;4.20;99.90;;;;;;4890996;29;20470;-86
2023/01/26 15:50:59;;;;;;;9.60;6.47;;;4.20;99.90;;;;;;4893413;29;21068;-86
2023/01/26 15:53:32;;;;;;;12.30;9.20;;;4.20;99.90;;;;;;4900752;29;20521;-86
2023/01/26 15:56:04;;;;;;;9.03;6.63;;;4.20;99.90;;;;;;4903318;29;20464;-87
2023/01/26 15:58:41;;;;;;;12.00;7.50;;;4.10;99.90;;;;;;4902812;29;20464;-86
2023/01/26 16:01:21;;;;;;;13.37;7.43;;;4.10;99.90;;;;;;4891910;29;20815;-85
2023/01/26 16:04:02;;;;;;;10.20;6.53;;;4.10;99.90;;;;;;4889184;29;20472;-85
2023/01/26 16:06:38;;;;;;;8.47;6.87;;;4.10;99.90;;;;;;4892120;29;20471;-88
2023/01/26 16:09:07;;;;;;;10.17;6.57;;;4.30;99.90;;;;;;4880447;29;20484;-85
2023/01/26 16:11:51;;;;;;;10.73;6.53;;;4.20;99.90;;;;;;4891667;29;20492;-86
2023/01/26 16:14:22;;;;;;;13.40;8.30;;;4.30;99.90;;;;;;4875941;29;20563;-87
2023/01/26 16:17:05;;;;;;;12.83;9.00;;;4.30;99.90;;;;;;4887416;29;20491;-85
2023/01/26 16:19:33;;;;;;;16.60;8.40;;;4.20;99.90;;;;;;4898524;29;20781;-86
2023/01/26 16:25:31;;;;;;;18.33;9.70;;;4.20;99.90;;;;;;4894349;29;20499;-87
2023/01/26 16:28:03;;;;;;;16.30;9.37;;;4.20;99.90;;;;;;4895153;29;20550;-86
2023/01/26 16:30:36;;;;;;;14.30;9.40;;;4.30;99.90;;;;;;4891597;29;20513;-86
2023/01/26 16:33:05;;;;;;;18.77;10.33;;;4.60;99.90;;;;;;4893395;29;20998;-86
2023/01/26 16:35:42;;;;;;;19.23;10.77;;;4.60;99.90;;;;;;4893207;29;21057;-86
2023/01/26 16:38:12;;;;;;;14.57;10.33;;;4.60;99.90;;;;;;4893961;29;20512;-86
2023/01/26 16:40:49;;;;;;;24.77;11.67;;;4.50;99.90;;;;;;4892237;29;20500;-86
2023/01/26 16:43:41;;;;;;;27.87;12.90;;;4.60;99.90;;;;;;4892302;29;20471;-86
2023/01/26 16:46:21;;;;;;;19.63;11.03;;;4.70;99.90;;;;;;4904886;29;22405;-84
2023/01/26 16:49:33;;;;;;;22.53;11.60;;;4.50;99.90;;;;;;4890888;29;20537;-86
2023/01/26 16:52:00;;;;;;;27.37;13.87;;;4.50;99.90;;;;;;4892240;29;20491;-86
2023/01/26 16:54:35;;;;;;;23.10;12.43;;;4.50;99.90;;;;;;4889921;29;20526;-85
2023/01/26 16:57:07;;;;;;;26.37;13.90;;;4.40;99.90;;;;;;4889834;29;22518;-85
2023/01/26 16:59:39;;;;;;;22.93;12.70;;;4.40;99.90;;;;;;4887195;29;20483;-86
2023/01/26 17:02:32;;;;;;;27.03;13.83;;;4.50;99.90;;;;;;4900485;29;20502;-86
2023/01/26 17:05:41;;;;;;;28.90;14.30;;;4.50;99.90;;;;;;4889080;29;20476;-85
2023/01/26 17:08:17;;;;;;;26.77;14.93;;;4.50;99.90;;;;;;4892764;29;20470;-86
2023/01/26 17:11:03;;;;;;;30.57;16.47;;;4.50;99.90;;;;;;4888924;29;20645;-85